createdAt,value
2022-10-21T00:01:32.573Z,100.00
2022-10-21T00:04:02.203Z,100.00
2022-10-21T00:06:28.902Z,100.00
2022-10-21T00:08:55.813Z,100.00
2022-10-21T00:11:22.588Z,100.00
2022-10-21T00:13:49.298Z,100.00
2022-10-21T00:16:19.096Z,100.00
2022-10-21T00:18:47.534Z,100.00
2022-10-21T00:21:21.036Z,100.00
2022-10-21T00:23:50.049Z,100.00
2022-10-21T00:26:18.156Z,100.00
2022-10-21T00:28:45.204Z,100.00
2022-10-21T00:31:14.474Z,100.00
2022-10-21T00:33:42.212Z,100.00
2022-10-21T00:36:15.273Z,100.00
2022-10-21T00:38:44.584Z,100.00
2022-10-21T00:41:12.407Z,100.00
2022-10-21T00:43:58.026Z,100.00
2022-10-21T00:46:34.973Z,100.00
2022-10-21T00:49:06.308Z,100.00
2022-10-21T00:51:34.074Z,100.00
2022-10-21T00:54:02.607Z,100.00
2022-10-21T00:56:32.580Z,100.00
2022-10-21T00:59:02.901Z,100.00
2022-10-21T01:01:30.059Z,100.00
2022-10-21T01:03:57.065Z,100.00
2022-10-21T01:06:26.205Z,100.00
2022-10-21T01:08:54.979Z,100.00
2022-10-21T01:11:23.629Z,100.00
2022-10-21T01:14:03.041Z,100.00
2022-10-21T01:16:47.259Z,100.00
2022-10-21T01:19:33.306Z,100.00
2022-10-21T01:22:23.368Z,100.00
2022-10-21T01:25:10.290Z,100.00
2022-10-21T01:27:49.099Z,100.00
2022-10-21T01:30:37.537Z,100.00
2022-10-21T01:33:27.048Z,100.00
2022-10-21T01:36:16.116Z,100.00
2022-10-21T01:38:56.406Z,100.00
2022-10-21T01:41:34.366Z,100.00
2022-10-21T01:44:12.797Z,100.00
2022-10-21T01:46:45.118Z,100.00
2022-10-21T01:49:21.446Z,100.00
2022-10-21T01:51:48.193Z,100.00
2022-10-21T01:54:22.955Z,100.00
2022-10-21T01:56:50.804Z,100.00
2022-10-21T01:59:20.192Z,100.00
2022-10-21T02:01:48.214Z,100.00
2022-10-21T02:04:18.378Z,100.00
2022-10-21T02:06:45.363Z,100.00
2022-10-21T02:09:12.203Z,100.00
2022-10-21T02:11:40.463Z,100.00
2022-10-21T02:14:18.845Z,100.00
2022-10-21T02:16:46.837Z,100.00
2022-10-21T02:19:19.434Z,100.00
2022-10-21T02:21:49.798Z,100.00
2022-10-21T02:24:25.477Z,100.00
2022-10-21T02:26:52.265Z,100.00
2022-10-21T02:29:26.998Z,100.00
2022-10-21T02:32:15.003Z,100.00
2022-10-21T02:35:29.620Z,100.00
2022-10-21T02:38:06.592Z,100.00
2022-10-21T02:40:45.095Z,100.00
2022-10-21T02:43:41.985Z,100.00
2022-10-21T02:46:11.497Z,100.00
2022-10-21T02:48:40.132Z,100.00
2022-10-21T02:51:08.345Z,100.00
2022-10-21T02:53:35.439Z,100.00
2022-10-21T02:56:02.831Z,100.00
2022-10-21T02:58:29.834Z,100.00
2022-10-21T03:00:56.602Z,100.00
2022-10-21T03:03:23.373Z,100.00
2022-10-21T03:05:50.175Z,100.00
2022-10-21T03:08:17.172Z,100.00
2022-10-21T03:10:45.430Z,100.00
2022-10-21T03:13:14.695Z,100.00
2022-10-21T03:15:41.516Z,100.00
2022-10-21T03:18:08.215Z,100.00
2022-10-21T03:20:34.967Z,100.00
2022-10-21T03:23:01.653Z,100.00
2022-10-21T03:25:31.726Z,100.00
2022-10-21T03:28:02.112Z,100.00
2022-10-21T03:30:28.808Z,100.00
2022-10-21T03:32:55.536Z,100.00
2022-10-21T03:35:22.269Z,100.00
2022-10-21T03:37:49.082Z,100.00
2022-10-21T03:40:15.915Z,100.00
2022-10-21T03:42:42.673Z,100.00
2022-10-21T03:45:09.791Z,100.00
2022-10-21T03:47:36.493Z,100.00
2022-10-21T03:50:05.474Z,100.00
2022-10-21T03:52:34.485Z,100.00
2022-10-21T03:55:01.151Z,100.00
2022-10-21T03:57:27.869Z,100.00
2022-10-21T03:59:54.596Z,100.00
2022-10-21T04:02:21.293Z,100.00
2022-10-21T04:04:47.957Z,100.00
2022-10-21T04:07:14.634Z,100.00
2022-10-21T04:09:41.328Z,100.00
2022-10-21T04:12:08.086Z,100.00
2022-10-21T04:14:35.011Z,100.00
2022-10-21T04:17:07.523Z,100.00
2022-10-21T04:19:34.809Z,100.00
2022-10-21T04:22:01.552Z,100.00
2022-10-21T04:24:28.267Z,100.00
2022-10-21T04:26:55.046Z,100.00
2022-10-21T04:29:21.823Z,100.00
2022-10-21T04:31:48.713Z,100.00
2022-10-21T04:34:15.487Z,100.00
2022-10-21T04:36:42.185Z,100.00
2022-10-21T04:39:08.910Z,100.00
2022-10-21T04:41:35.819Z,100.00
2022-10-21T04:44:03.479Z,100.00
2022-10-21T04:46:30.971Z,100.00
2022-10-21T04:48:57.687Z,100.00
2022-10-21T04:51:24.657Z,100.00
2022-10-21T04:53:51.404Z,100.00
2022-10-21T04:56:18.120Z,100.00
2022-10-21T04:58:44.881Z,100.00
2022-10-21T05:01:11.688Z,100.00
2022-10-21T05:03:38.449Z,100.00
2022-10-21T05:06:05.375Z,100.00
2022-10-21T05:08:32.135Z,100.00
2022-10-21T05:11:00.729Z,100.00
2022-10-21T05:13:28.906Z,100.00
2022-10-21T05:16:00.661Z,100.00
2022-10-21T05:18:27.434Z,100.00
2022-10-21T05:20:55.535Z,100.00
2022-10-21T05:23:22.989Z,100.00
2022-10-21T05:25:51.870Z,100.00
2022-10-21T05:28:19.837Z,100.00
2022-10-21T05:30:47.075Z,100.00
2022-10-21T05:33:13.783Z,100.00
2022-10-21T05:35:40.553Z,100.00
2022-10-21T05:38:07.384Z,100.00
2022-10-21T05:40:34.303Z,100.00
2022-10-21T05:43:01.048Z,100.00
2022-10-21T05:45:27.993Z,100.00
2022-10-21T05:47:54.733Z,100.00
2022-10-21T05:50:21.610Z,100.00
2022-10-21T05:52:48.409Z,100.00
2022-10-21T05:55:15.510Z,100.00
2022-10-21T05:57:42.298Z,100.00
2022-10-21T06:00:09.930Z,100.00
2022-10-21T06:02:36.946Z,100.00
2022-10-21T06:05:04.110Z,100.00
2022-10-21T06:07:30.811Z,100.00
2022-10-21T06:09:58.077Z,100.00
2022-10-21T06:12:24.850Z,100.00
2022-10-21T06:14:51.789Z,100.00
2022-10-21T06:17:18.491Z,100.00
2022-10-21T06:19:48.646Z,100.00
2022-10-21T06:22:17.879Z,100.00
2022-10-21T06:24:44.606Z,100.00
2022-10-21T06:27:11.381Z,100.00
2022-10-21T06:29:38.102Z,100.00
2022-10-21T06:32:04.963Z,100.00
2022-10-21T06:34:31.643Z,100.00
2022-10-21T06:36:58.362Z,100.00
2022-10-21T06:39:25.225Z,100.00
2022-10-21T06:41:52.082Z,100.00
2022-10-21T06:44:18.947Z,100.00
2022-10-21T06:46:45.704Z,100.00
2022-10-21T06:49:12.512Z,100.00
2022-10-21T06:51:39.433Z,100.00
2022-10-21T06:54:06.274Z,100.00
2022-10-21T06:56:33.048Z,100.00
2022-10-21T06:58:59.830Z,100.00
2022-10-21T07:01:40.999Z,100.00
2022-10-21T07:04:15.014Z,100.00
2022-10-21T07:06:41.735Z,100.00
2022-10-21T07:09:09.237Z,100.00
2022-10-21T07:11:37.280Z,100.00
2022-10-21T07:14:04.617Z,100.00
2022-10-21T07:16:34.139Z,100.00
2022-10-21T07:19:01.000Z,100.00
2022-10-21T07:21:30.071Z,97.76
2022-10-21T07:23:59.543Z,83.15
2022-10-21T07:26:28.933Z,76.17
2022-10-21T07:28:58.555Z,70.26
2022-10-21T07:31:25.605Z,67.08
2022-10-21T07:33:53.244Z,58.24
2022-10-21T07:36:26.426Z,55.86
2022-10-21T07:38:55.694Z,52.16
2022-10-21T07:41:33.170Z,53.70
2022-10-21T07:44:00.346Z,55.15
2022-10-21T07:46:27.245Z,52.56
2022-10-21T07:48:54.251Z,49.55
2022-10-21T07:51:28.360Z,49.84
2022-10-21T07:53:57.125Z,48.62
2022-10-21T07:56:28.636Z,46.52
2022-10-21T07:58:55.584Z,49.81
2022-10-21T08:01:22.507Z,51.12
2022-10-21T08:03:49.795Z,50.64
2022-10-21T08:06:17.800Z,50.38
2022-10-21T08:08:45.501Z,50.03
2022-10-21T08:11:12.677Z,52.67
2022-10-21T08:13:41.697Z,51.30
2022-10-21T08:16:08.387Z,52.89
2022-10-21T08:18:35.134Z,53.13
2022-10-21T08:21:03.786Z,56.02
2022-10-21T08:23:31.127Z,56.16
2022-10-21T08:26:00.834Z,56.05
2022-10-21T08:28:29.719Z,58.07
2022-10-21T08:31:08.664Z,57.88
2022-10-21T08:33:36.334Z,57.88
2022-10-21T08:36:08.363Z,59.17
2022-10-21T08:38:35.757Z,59.76
2022-10-21T08:41:03.009Z,56.42
2022-10-21T08:43:33.183Z,51.95
2022-10-21T08:46:13.644Z,52.91
2022-10-21T08:48:47.805Z,50.29
2022-10-21T08:51:29.253Z,50.22
2022-10-21T08:53:58.479Z,50.67
2022-10-21T08:56:26.139Z,51.85
2022-10-21T08:58:53.084Z,54.75
2022-10-21T09:02:06.314Z,57.32
2022-10-21T09:04:56.228Z,59.05
2022-10-21T09:07:55.216Z,57.50
2022-10-21T09:10:39.091Z,62.90
2022-10-21T09:13:22.852Z,61.18
2022-10-21T09:16:15.795Z,62.83
2022-10-21T09:19:03.744Z,60.75
2022-10-21T09:22:05.844Z,62.93
2022-10-21T09:24:53.598Z,62.12
2022-10-21T09:27:32.169Z,63.17
2022-10-21T09:30:08.023Z,64.88
2022-10-21T09:32:41.195Z,64.70
2022-10-21T09:35:26.975Z,62.68
2022-10-21T09:38:02.646Z,62.68
2022-10-21T09:40:31.462Z,62.32
2022-10-21T09:43:00.750Z,60.98
2022-10-21T09:45:41.425Z,60.00
2022-10-21T09:48:20.141Z,62.31
2022-10-21T09:50:51.269Z,59.99
2022-10-21T09:54:05.110Z,59.94
2022-10-21T09:56:39.226Z,62.20
2022-10-21T09:59:12.276Z,62.49
2022-10-21T10:01:41.414Z,61.16
2022-10-21T10:04:16.905Z,60.73
2022-10-21T10:06:45.072Z,62.47
2022-10-21T10:09:34.352Z,61.18
2022-10-21T10:12:30.913Z,61.62
2022-10-21T10:15:29.377Z,60.51
2022-10-21T10:18:07.491Z,62.54
2022-10-21T10:20:34.609Z,62.02
2022-10-21T10:23:01.305Z,64.34
2022-10-21T10:25:33.155Z,61.67
2022-10-21T10:28:10.840Z,62.46
2022-10-21T10:30:59.751Z,61.84
2022-10-21T10:33:36.266Z,60.97
2022-10-21T10:36:09.390Z,59.06
2022-10-21T10:38:41.577Z,58.97
2022-10-21T10:41:14.343Z,60.75
2022-10-21T10:43:53.662Z,63.03
2022-10-21T10:46:26.361Z,63.09
2022-10-21T10:48:56.048Z,63.32
2022-10-21T10:51:23.327Z,64.96
2022-10-21T10:54:12.041Z,64.43
2022-10-21T10:56:49.035Z,65.05
2022-10-21T10:59:38.582Z,64.44
2022-10-21T11:02:10.954Z,64.47
2022-10-21T11:04:45.314Z,65.74
2022-10-21T11:07:30.307Z,64.24
2022-10-21T11:10:24.944Z,64.76
2022-10-21T11:12:52.284Z,65.81
2022-10-21T11:15:27.333Z,66.59
2022-10-21T11:18:23.007Z,66.64
2022-10-21T11:21:07.699Z,68.94
2022-10-21T11:24:06.785Z,68.24
2022-10-21T11:27:13.537Z,68.19
2022-10-21T11:29:53.834Z,69.18
2022-10-21T11:32:38.093Z,68.74
2022-10-21T11:35:41.935Z,67.62
2022-10-21T11:38:17.832Z,68.60
2022-10-21T11:40:55.277Z,70.78
2022-10-21T11:43:31.226Z,69.24
2022-10-21T11:46:35.916Z,69.75
2022-10-21T11:49:14.013Z,68.49
2022-10-21T11:52:11.212Z,67.14
2022-10-21T11:55:09.950Z,66.54
2022-10-21T11:58:04.613Z,65.94
2022-10-21T12:00:46.966Z,64.38
2022-10-21T12:03:25.162Z,63.81
2022-10-21T12:06:02.849Z,65.80
2022-10-21T12:08:58.460Z,65.85
2022-10-21T12:11:46.424Z,64.02
2022-10-21T12:14:31.816Z,64.50
2022-10-21T12:17:02.132Z,63.47
2022-10-21T12:19:29.333Z,64.61
2022-10-21T12:21:56.098Z,65.07
2022-10-21T12:24:32.329Z,63.79
2022-10-21T12:27:11.236Z,66.24
2022-10-21T12:29:42.888Z,65.12
2022-10-21T12:32:28.389Z,66.88
2022-10-21T12:34:55.991Z,64.45
2022-10-21T12:38:02.792Z,66.52
2022-10-21T12:40:29.495Z,66.61
2022-10-21T12:43:16.577Z,67.44
2022-10-21T12:45:44.584Z,67.75
2022-10-21T12:48:33.190Z,68.42
2022-10-21T12:51:07.123Z,67.70
2022-10-21T12:53:39.135Z,69.39
2022-10-21T12:56:07.709Z,70.72
2022-10-21T12:58:39.594Z,69.57
2022-10-21T13:01:27.399Z,69.65
2022-10-21T13:03:55.935Z,71.20
2022-10-21T13:06:52.502Z,71.72
2022-10-21T13:09:31.522Z,73.39
2022-10-21T13:12:28.327Z,73.37
2022-10-21T13:15:20.738Z,73.51
2022-10-21T13:17:57.830Z,73.50
2022-10-21T13:20:24.921Z,73.72
2022-10-21T13:23:14.643Z,74.75
2022-10-21T13:25:41.464Z,75.54
2022-10-21T13:28:14.116Z,74.60
2022-10-21T13:30:58.703Z,75.16
2022-10-21T13:33:33.670Z,77.01
2022-10-21T13:36:13.028Z,77.58
2022-10-21T13:38:50.022Z,78.24
2022-10-21T13:41:30.951Z,79.82
2022-10-21T13:44:04.335Z,77.23
2022-10-21T13:46:43.583Z,77.44
2022-10-21T13:49:32.544Z,78.72
2022-10-21T13:51:59.456Z,78.48
2022-10-21T13:54:26.302Z,76.62
2022-10-21T13:56:53.035Z,77.26
2022-10-21T13:59:32.775Z,77.06
2022-10-21T14:01:59.505Z,78.11
2022-10-21T14:04:28.825Z,78.26
2022-10-21T14:07:08.868Z,78.13
2022-10-21T14:09:46.310Z,77.15
2022-10-21T14:12:34.007Z,75.46
2022-10-21T14:15:14.258Z,74.79
2022-10-21T14:17:44.267Z,75.29
2022-10-21T14:20:18.202Z,76.75
2022-10-21T14:22:50.295Z,77.52
2022-10-21T14:25:18.608Z,77.95
2022-10-21T14:27:47.363Z,78.05
2022-10-21T14:30:34.922Z,78.94
2022-10-21T14:33:04.677Z,79.12
2022-10-21T14:35:32.226Z,81.17
2022-10-21T14:38:01.315Z,81.04
2022-10-21T14:40:41.022Z,80.36
2022-10-21T14:43:13.587Z,81.19
2022-10-21T14:46:08.058Z,81.93
2022-10-21T14:48:44.013Z,82.62
2022-10-21T14:51:21.241Z,83.61
2022-10-21T14:54:02.304Z,83.29
2022-10-21T14:56:43.323Z,83.75
2022-10-21T14:59:24.530Z,84.02
2022-10-21T15:01:52.054Z,84.11
2022-10-21T15:04:57.311Z,84.29
2022-10-21T15:10:04.504Z,84.81
2022-10-21T15:12:50.474Z,84.54
2022-10-21T15:15:53.254Z,85.41
2022-10-21T15:18:32.397Z,85.91
2022-10-21T15:21:03.412Z,86.76
2022-10-21T15:23:39.530Z,87.27
2022-10-21T15:26:21.582Z,86.90
2022-10-21T15:28:49.170Z,86.13
2022-10-21T15:31:18.431Z,86.35
2022-10-21T15:33:45.227Z,85.08
2022-10-21T15:36:13.286Z,84.86
2022-10-21T15:38:47.529Z,84.18
2022-10-21T15:41:23.441Z,85.02
2022-10-21T15:43:56.200Z,85.58
2022-10-21T15:46:24.904Z,84.50
2022-10-21T15:48:51.873Z,85.77
2022-10-21T15:51:19.129Z,86.84
2022-10-21T15:53:45.847Z,86.79
2022-10-21T15:56:14.589Z,84.81
2022-10-21T15:58:41.666Z,83.72
2022-10-21T16:01:14.804Z,85.26
2022-10-21T16:03:42.544Z,86.05
2022-10-21T16:06:17.146Z,87.01
2022-10-21T16:08:44.263Z,87.70
2022-10-21T16:11:25.595Z,88.57
2022-10-21T16:14:01.864Z,87.96
2022-10-21T16:16:28.820Z,87.43
2022-10-21T16:18:55.539Z,88.57
2022-10-21T16:21:23.192Z,88.17
2022-10-21T16:23:50.257Z,86.66
2022-10-21T16:26:25.540Z,86.00
2022-10-21T16:28:52.989Z,86.16
2022-10-21T16:31:19.837Z,86.20
2022-10-21T16:33:46.638Z,85.76
2022-10-21T16:36:17.171Z,84.99
2022-10-21T16:38:45.009Z,85.55
2022-10-21T16:41:12.776Z,84.99
2022-10-21T16:43:39.954Z,85.40
2022-10-21T16:46:09.634Z,85.65
2022-10-21T16:48:36.446Z,85.26
2022-10-21T16:51:03.521Z,85.61
2022-10-21T16:53:30.288Z,85.82
2022-10-21T16:55:58.154Z,86.09
2022-10-21T16:58:24.853Z,86.31
2022-10-21T17:00:52.298Z,86.62
2022-10-21T17:03:19.092Z,87.38
2022-10-21T17:05:45.814Z,86.81
2022-10-21T17:08:12.993Z,87.25
2022-10-21T17:10:39.864Z,86.97
2022-10-21T17:13:06.937Z,86.80
2022-10-21T17:15:33.748Z,87.11
2022-10-21T17:18:00.717Z,86.89
2022-10-21T17:20:31.498Z,86.90
2022-10-21T17:23:04.920Z,86.19
2022-10-21T17:25:31.857Z,86.95
2022-10-21T17:27:58.673Z,86.76
2022-10-21T17:30:25.472Z,86.76
2022-10-21T17:32:53.650Z,87.83
2022-10-21T17:35:20.570Z,88.55
2022-10-21T17:37:53.354Z,87.16
2022-10-21T17:40:26.159Z,87.14
2022-10-21T17:42:53.748Z,87.43
2022-10-21T17:45:22.404Z,86.90
2022-10-21T17:47:50.368Z,86.95
2022-10-21T17:50:23.607Z,87.08
2022-10-21T17:52:51.851Z,87.88
2022-10-21T17:55:19.487Z,86.83
2022-10-21T17:57:46.796Z,86.84
2022-10-21T18:00:14.251Z,86.42
2022-10-21T18:02:42.161Z,85.84
2022-10-21T18:05:10.483Z,85.31
2022-10-21T18:07:38.204Z,85.71
2022-10-21T18:10:07.269Z,86.40
2022-10-21T18:12:35.946Z,86.12
2022-10-21T18:15:03.147Z,85.73
2022-10-21T18:17:31.081Z,85.22
2022-10-21T18:19:58.283Z,85.63
2022-10-21T18:22:25.859Z,85.33
2022-10-21T18:24:53.552Z,85.65
2022-10-21T18:27:22.791Z,85.95
2022-10-21T18:29:50.174Z,86.21
2022-10-21T18:32:18.152Z,87.55
2022-10-21T18:34:45.404Z,88.27
2022-10-21T18:37:12.727Z,87.59
2022-10-21T18:39:40.256Z,88.75
2022-10-21T18:42:07.302Z,89.90
2022-10-21T18:44:34.523Z,89.12
2022-10-21T18:47:01.727Z,89.41
2022-10-21T18:49:29.034Z,90.62
2022-10-21T18:51:56.321Z,91.00
2022-10-21T18:54:23.539Z,91.14
2022-10-21T18:56:50.771Z,90.79
2022-10-21T18:59:18.089Z,90.86
2022-10-21T19:01:45.441Z,90.47
2022-10-21T19:06:41.528Z,89.54
2022-10-21T19:09:13.858Z,89.85
2022-10-21T19:11:42.095Z,89.99
2022-10-21T19:14:11.360Z,89.05
2022-10-21T19:16:41.574Z,89.18
2022-10-21T19:19:09.537Z,89.78
2022-10-21T19:21:37.958Z,88.90
2022-10-21T19:24:05.687Z,88.76
2022-10-21T19:26:35.920Z,89.57
2022-10-21T19:29:23.822Z,89.01
2022-10-21T19:31:50.923Z,89.33
2022-10-21T19:34:21.597Z,89.72
2022-10-21T19:36:49.124Z,89.70
2022-10-21T19:39:17.020Z,89.64
2022-10-21T19:41:44.328Z,89.25
2022-10-21T19:44:12.728Z,89.77
2022-10-21T19:46:39.999Z,90.44
2022-10-21T19:49:09.808Z,90.99
2022-10-21T19:51:37.615Z,91.68
2022-10-21T19:54:06.657Z,90.94
2022-10-21T19:56:34.602Z,91.50
2022-10-21T19:59:03.191Z,91.15
2022-10-21T20:01:35.368Z,92.21
2022-10-21T20:04:04.113Z,92.87
2022-10-21T20:06:33.704Z,92.56
2022-10-21T20:09:04.683Z,92.47
2022-10-21T20:11:31.966Z,93.16
2022-10-21T20:14:00.714Z,92.81
2022-10-21T20:16:29.082Z,92.52
2022-10-21T20:18:57.204Z,92.43
2022-10-21T20:21:25.671Z,92.33
2022-10-21T20:23:53.235Z,92.57
2022-10-21T20:26:20.709Z,93.41
2022-10-21T20:28:47.825Z,93.86
2022-10-21T20:31:16.283Z,93.99
2022-10-21T20:33:46.858Z,94.47
2022-10-21T20:36:17.520Z,94.13
2022-10-21T20:38:48.749Z,94.55
2022-10-21T20:41:27.131Z,94.60
2022-10-21T20:43:55.258Z,94.26
2022-10-21T20:46:24.044Z,94.98
2022-10-21T20:48:52.272Z,95.22
2022-10-21T20:51:25.366Z,94.79
2022-10-21T20:53:57.652Z,96.39
2022-10-21T20:56:33.701Z,97.17
2022-10-21T20:59:01.045Z,96.44
2022-10-21T21:01:32.761Z,97.50
2022-10-21T21:04:02.309Z,97.55
2022-10-21T21:06:29.119Z,96.70
2022-10-21T21:09:25.714Z,95.94
2022-10-21T21:11:42.623Z,95.18
2022-10-21T21:14:09.332Z,96.20
2022-10-21T21:16:36.128Z,95.92
2022-10-21T21:19:05.624Z,97.25
2022-10-21T21:21:34.773Z,96.80
2022-10-21T21:24:02.070Z,97.72
2022-10-21T21:26:34.884Z,98.29
2022-10-21T21:29:01.645Z,98.41
2022-10-21T21:31:31.161Z,98.39
2022-10-21T21:33:58.026Z,97.89
2022-10-21T21:36:25.372Z,98.71
2022-10-21T21:38:54.217Z,98.95
2022-10-21T21:41:23.234Z,98.58
2022-10-21T21:43:51.705Z,99.21
2022-10-21T21:46:24.049Z,99.28
2022-10-21T21:48:59.644Z,99.41
2022-10-21T21:51:29.677Z,99.79
2022-10-21T21:53:57.433Z,100.00
2022-10-21T21:56:25.366Z,100.00
2022-10-21T21:58:54.815Z,100.00
2022-10-21T22:01:23.794Z,100.00
2022-10-21T22:03:52.022Z,100.00
2022-10-21T22:06:23.762Z,100.00
2022-10-21T22:08:51.091Z,100.00
2022-10-21T22:11:21.225Z,100.00
2022-10-21T22:13:48.068Z,100.00
2022-10-21T22:16:16.278Z,100.00
2022-10-21T22:18:43.606Z,100.00
2022-10-21T22:21:13.340Z,100.00
2022-10-21T22:23:40.801Z,100.00
2022-10-21T22:26:08.877Z,100.00
2022-10-21T22:28:35.692Z,100.00
2022-10-21T22:31:08.619Z,100.00
2022-10-21T22:33:35.887Z,100.00
2022-10-21T22:36:03.638Z,100.00
2022-10-21T22:38:30.455Z,100.00
2022-10-21T22:40:59.403Z,100.00
2022-10-21T22:43:27.257Z,100.00
2022-10-21T22:46:01.145Z,100.00
2022-10-21T22:48:41.229Z,100.00
2022-10-21T22:51:07.930Z,100.00
2022-10-21T22:53:35.528Z,100.00
2022-10-21T22:56:02.480Z,100.00
2022-10-21T22:58:29.285Z,100.00
2022-10-21T23:03:27.605Z,100.00
2022-10-21T23:05:54.339Z,100.00
2022-10-21T23:08:21.239Z,100.00
2022-10-21T23:10:49.215Z,100.00
2022-10-21T23:13:16.470Z,100.00
2022-10-21T23:15:43.992Z,100.00
2022-10-21T23:18:10.922Z,100.00
2022-10-21T23:20:37.756Z,100.00
2022-10-21T23:23:04.573Z,100.00
2022-10-21T23:25:31.253Z,100.00
2022-10-21T23:27:58.086Z,100.00
2022-10-21T23:30:24.989Z,100.00
2022-10-21T23:32:51.828Z,100.00
2022-10-21T23:35:18.871Z,100.00
2022-10-21T23:37:45.807Z,100.00
2022-10-21T23:40:13.469Z,100.00
2022-10-21T23:42:42.827Z,100.00
2022-10-21T23:45:11.550Z,100.00
2022-10-21T23:47:39.862Z,100.00
2022-10-21T23:50:08.810Z,100.00
2022-10-21T23:52:37.118Z,100.00
2022-10-21T23:55:08.265Z,100.00
2022-10-21T23:57:35.552Z,100.00
